Terminal Aerodrome Forecast
Issued by NWS

Home | Current Version | Previous Version | Text Only | Print | Product List | Glossary On
Versions: 1 2 3 4 5 6 7 8 9 10 11 12 13 14 15 16 17 18
000
FTUS46 KPDT 211400 AAB
TAFYKM
TAF AMD
KYKM 211445Z 2115/2212 27007KT 6SM BR SCT002
     FM211600 VRB06KT P6SM FEW070 OVC200
     FM220200 26007KT P6SM BKN080 OVC120=

USA.gov is the U.S. government's official web portal to all federal, state and local government web resources and services.